Time;durP1;ratioP1;P1;durP2;ratioP2;P2;SDS_P1;SDS_P2;PMS_P1;PMS_P2;Temp;Humidity;BMP_temperature;BMP_pressure;BME280_temperature;BME280_humidity;BME280_pressure;Samples;Min_cycle;Max_cycle;Signal;HPM_P1;HPM_P2
2022/11/14 00:00:34;;;;;;;41.20;22.10;;;;;;;7.47;80.04;100934.88;3144793;28;20048;-74
2022/11/14 00:02:06;;;;;;;41.90;22.13;;;;;;;7.43;80.11;100935.78;3138127;28;20110;-73
2022/11/14 00:03:38;;;;;;;43.42;22.67;;;;;;;7.40;80.07;100933.25;3120795;28;20087;-75
2022/11/14 00:05:10;;;;;;;47.60;23.23;;;;;;;7.37;80.22;100928.13;3131565;28;20136;-74
2022/11/14 00:06:42;;;;;;;46.35;22.80;;;;;;;7.34;80.29;100928.16;3142886;28;20056;-75
2022/11/14 00:08:16;;;;;;;45.78;22.77;;;;;;;7.29;80.25;100924.75;3145338;28;20048;-74
2022/11/14 00:09:49;;;;;;;46.67;22.80;;;;;;;7.24;80.59;100924.81;3137730;28;20140;-75
2022/11/14 00:11:21;;;;;;;44.67;22.17;;;;;;;7.19;80.88;100925.78;3139282;28;20056;-74
2022/11/14 00:12:52;;;;;;;37.72;20.73;;;;;;;7.18;80.69;100929.22;3143481;28;20076;-74
2022/11/14 00:14:24;;;;;;;48.47;23.55;;;;;;;7.02;80.76;100894.91;3136144;28;20448;-74
2022/11/14 00:15:56;;;;;;;44.47;22.02;;;;;;;7.14;80.83;100918.06;3145219;28;20062;-75
2022/11/14 00:17:28;;;;;;;41.03;21.20;;;;;;;7.12;81.05;100917.19;3141018;28;20060;-74
2022/11/14 00:19:00;;;;;;;42.17;20.75;;;;;;;7.12;80.84;100906.00;3145505;28;20437;-74
2022/11/14 00:20:32;;;;;;;39.80;21.27;;;;;;;7.11;80.90;100915.50;3136920;28;20068;-73
2022/11/14 00:22:04;;;;;;;44.03;22.13;;;;;;;7.11;81.06;100906.88;3132898;28;20107;-74
2022/11/14 00:23:36;;;;;;;44.50;21.58;;;;;;;7.09;80.91;100909.47;3141700;28;20320;-73
2022/11/14 00:25:10;;;;;;;41.95;21.17;;;;;;;7.09;80.86;100908.63;3145420;28;20048;-73
2022/11/14 00:26:41;;;;;;;43.03;21.40;;;;;;;7.06;81.03;100909.50;3145253;28;20449;-74
2022/11/14 00:28:13;;;;;;;45.08;21.85;;;;;;;7.04;81.15;100901.78;3143870;28;20105;-74
2022/11/14 00:29:45;;;;;;;41.55;20.95;;;;;;;7.04;81.15;100904.38;3133099;28;20053;-74
2022/11/14 00:31:17;;;;;;;42.67;20.95;;;;;;;7.02;80.91;100900.94;3137185;28;20061;-74
2022/11/14 00:32:49;;;;;;;41.75;22.25;;;;;;;7.02;80.87;100903.53;3143229;28;20072;-74
2022/11/14 00:34:20;;;;;;;38.72;20.15;;;;;;;7.02;81.00;100903.53;3144999;28;20098;-74
2022/11/14 00:35:53;;;;;;;40.40;21.33;;;;;;;6.71;80.90;100859.03;3138103;28;20106;-74
2022/11/14 00:37:25;;;;;;;38.15;21.08;;;;;;;6.99;80.92;100900.97;3139140;28;20052;-74
2022/11/14 00:38:57;;;;;;;51.30;22.05;;;;;;;6.98;80.66;100899.28;3144870;28;20497;-74
2022/11/14 00:40:30;;;;;;;43.15;20.98;;;;;;;6.96;80.88;100901.00;3138541;28;20040;-73
2022/11/14 00:42:02;;;;;;;43.22;19.90;;;;;;;6.87;80.84;100887.34;3145003;28;20052;-74
2022/11/14 00:43:34;;;;;;;46.85;20.40;;;;;;;6.78;80.82;100878.81;3139781;28;20423;-74
2022/11/14 00:45:07;;;;;;;38.13;20.52;;;;;;;6.86;80.63;100888.19;3145177;28;20147;-74
2022/11/14 00:46:38;;;;;;;40.95;20.15;;;;;;;6.83;80.65;100889.09;3120230;28;20052;-73
2022/11/14 00:48:10;;;;;;;38.08;19.17;;;;;;;6.80;80.75;100886.53;3133294;28;20053;-73
2022/11/14 00:49:41;;;;;;;41.83;20.95;;;;;;;6.76;80.67;100888.31;3136158;28;20414;-73
2022/11/14 00:51:13;;;;;;;40.67;20.35;;;;;;;6.72;80.87;100884.06;3128815;28;20238;-74
2022/11/14 00:52:45;;;;;;;39.78;19.38;;;;;;;6.64;80.94;100877.25;3133874;28;20048;-73
2022/11/14 00:54:17;;;;;;;37.53;19.08;;;;;;;6.66;80.84;100884.13;3138535;28;20056;-74
2022/11/14 00:55:50;;;;;;;41.47;20.80;;;;;;;6.67;80.91;100879.81;3133921;28;20048;-74
2022/11/14 00:57:20;;;;;;;39.97;20.70;;;;;;;6.64;81.03;100872.94;3143241;28;20374;-73
2022/11/14 00:58:52;;;;;;;37.38;18.90;;;;;;;6.62;80.93;100872.06;3144901;28;20048;-75
2022/11/14 01:00:24;;;;;;;39.35;21.00;;;;;;;6.60;80.93;100873.84;3143818;28;20049;-73
2022/11/14 01:01:56;;;;;;;39.38;20.33;;;;;;;6.58;81.21;100879.03;3125209;28;20103;-73
2022/11/14 01:03:28;;;;;;;43.10;21.40;;;;;;;6.56;81.37;100875.59;3143492;28;20280;-73
2022/11/14 01:05:01;;;;;;;40.05;20.13;;;;;;;6.56;81.16;100872.16;3138620;28;20099;-73
2022/11/14 01:06:32;;;;;;;42.53;21.20;;;;;;;6.56;81.43;100872.16;3133962;28;20445;-73
2022/11/14 01:08:05;;;;;;;39.15;21.20;;;;;;;6.55;81.39;100873.03;3134204;28;20044;-73
2022/11/14 01:09:37;;;;;;;41.20;19.88;;;;;;;6.53;81.43;100873.03;3137756;28;20132;-73
2022/11/14 01:11:12;;;;;;;42.10;20.35;;;;;;;6.53;81.67;100870.44;3144591;28;20044;-73
2022/11/14 01:12:44;;;;;;;40.97;20.63;;;;;;;6.51;81.60;100873.97;3144602;28;20048;-74
2022/11/14 01:14:16;;;;;;;38.75;20.15;;;;;;;6.50;81.62;100869.63;3144509;28;20060;-73
2022/11/14 01:15:48;;;;;;;43.55;21.05;;;;;;;6.48;81.75;100864.50;3134737;28;20528;-74
2022/11/14 01:17:20;;;;;;;44.03;20.85;;;;;;;6.51;81.55;100872.22;3142955;28;20520;-75
2022/11/14 01:18:52;;;;;;;44.08;19.77;;;;;;;6.50;81.63;100875.66;3144103;28;20109;-75
2022/11/14 01:20:24;;;;;;;45.00;20.67;;;;;;;6.51;81.74;100872.22;3137679;28;20111;-74
2022/11/14 01:21:55;;;;;;;41.60;19.88;;;;;;;6.52;81.76;100868.75;3133406;28;20486;-74
2022/11/14 01:23:27;;;;;;;40.42;20.50;;;;;;;6.52;81.76;100868.75;3139299;28;20053;-73
2022/11/14 01:24:59;;;;;;;44.40;20.23;;;;;;;6.52;81.78;100863.56;3133158;28;20052;-73
2022/11/14 01:26:33;;;;;;;42.05;19.50;;;;;;;6.54;81.80;100859.25;3135351;28;20090;-74
2022/11/14 01:28:04;;;;;;;;;;;;;;;6.47;81.67;100859.31;3126786;28;20049;-73
2022/11/14 01:29:36;;;;;;;39.50;18.58;;;;;;;6.48;81.99;100854.16;3122559;28;19968;-73
2022/11/14 01:31:10;;;;;;;39.17;19.40;;;;;;;6.50;81.72;100849.78;3133787;28;20411;-73
2022/11/14 01:32:42;;;;;;;39.67;20.45;;;;;;;6.53;81.79;100848.91;3131067;28;20135;-74
2022/11/14 01:34:14;;;;;;;40.45;19.67;;;;;;;6.55;81.54;100848.00;3131032;28;20053;-73
2022/11/14 01:35:46;;;;;;;40.15;19.25;;;;;;;6.56;81.58;100849.72;3129022;28;20807;-73
2022/11/14 01:37:18;;;;;;;37.30;19.38;;;;;;;6.57;81.47;100859.22;3127536;28;20113;-73
2022/11/14 01:38:53;;;;;;;39.03;18.98;;;;;;;6.59;81.70;100854.00;3134160;28;20052;-72
2022/11/14 01:40:25;;;;;;;35.97;18.42;;;;;;;6.58;81.54;100847.13;3134203;28;20282;-73
2022/11/14 01:41:58;;;;;;;35.65;18.33;;;;;;;6.60;81.60;100850.56;3130296;28;20171;-72
2022/11/14 01:43:31;;;;;;;38.47;19.15;;;;;;;6.59;81.52;100854.00;3130313;28;20056;-73
2022/11/14 01:45:37;;;;;;;37.42;19.63;;;;;;;6.58;81.49;100853.16;3123955;28;20454;-73
2022/11/14 01:47:10;;;;;;;38.72;19.75;;;;;;;6.55;81.73;100853.19;3114928;28;20374;-73
2022/11/14 01:48:45;;;;;;;37.92;19.48;;;;;;;6.57;81.74;100853.19;3124131;28;20440;-74
2022/11/14 01:50:17;;;;;;;41.33;20.60;;;;;;;6.56;81.56;100847.13;3124055;28;20066;-73
2022/11/14 01:51:56;;;;;;;41.15;20.55;;;;;;;6.60;81.64;100847.97;3124578;28;20224;-74
2022/11/14 01:53:28;;;;;;;42.08;20.90;;;;;;;6.57;81.55;100848.84;3112481;28;20342;-73
2022/11/14 01:55:03;;;;;;;36.58;19.48;;;;;;;6.59;81.62;100844.50;3134265;28;20532;-73
2022/11/14 01:56:38;;;;;;;40.72;19.75;;;;;;;6.60;81.63;100841.06;3134552;28;20053;-74
2022/11/14 01:58:11;;;;;;;37.10;19.73;;;;;;;6.63;81.27;100844.50;3134956;28;20056;-74
2022/11/14 01:59:49;;;;;;;41.53;19.92;;;;;;;6.66;81.39;100844.44;3127427;28;20067;-74
2022/11/14 02:01:20;;;;;;;37.60;19.52;;;;;;;6.65;81.27;100845.31;3129259;28;20294;-74
2022/11/14 02:02:53;;;;;;;39.38;19.73;;;;;;;6.61;81.29;100840.16;3128369;28;20056;-74
2022/11/14 02:04:28;;;;;;;34.25;18.35;;;;;;;6.65;81.03;100847.91;3133710;28;20049;-74
2022/11/14 02:06:01;;;;;;;38.05;18.92;;;;;;;6.65;81.16;100850.47;3126289;28;20171;-74
2022/11/14 02:07:34;;;;;;;;;;;;;;;6.56;81.35;100841.09;3135002;28;20055;-73
2022/11/14 02:09:08;;;;;;;39.95;17.67;;;;;;;6.51;81.35;100838.59;3123637;28;19934;-73
2022/11/14 02:10:40;;;;;;;32.72;16.73;;;;;;;6.50;81.42;100843.75;3134078;28;20079;-73
2022/11/14 02:12:14;;;;;;;30.63;16.75;;;;;;;6.47;81.24;100842.06;3134489;28;20056;-73
2022/11/14 02:13:48;;;;;;;31.88;17.00;;;;;;;6.49;81.08;100848.09;3131052;28;20048;-73
2022/11/14 02:15:20;;;;;;;37.80;17.75;;;;;;;6.51;81.34;100835.16;3133371;28;20101;-74
2022/11/14 02:16:52;;;;;;;35.30;17.48;;;;;;;6.54;80.99;100838.53;3132598;28;20223;-74
2022/11/14 02:18:24;;;;;;;36.65;18.20;;;;;;;6.54;80.89;100842.88;3130818;28;20053;-73
2022/11/14 02:20:20;;;;;;;32.38;17.05;;;;;;;6.53;80.90;100833.38;3132392;28;20139;-74
2022/11/14 02:21:53;;;;;;;34.45;18.20;;;;;;;6.48;80.83;100833.44;3120681;28;20055;-74
2022/11/14 02:23:26;;;;;;;34.85;17.63;;;;;;;6.45;81.05;100836.06;3129474;28;20083;-74
2022/11/14 02:24:58;;;;;;;;;;;;;;;6.35;80.76;100824.94;3134976;28;20593;-74
2022/11/14 02:26:30;;;;;;;31.83;16.77;;;;;;;6.31;81.27;100822.44;3130487;28;20112;-74
2022/11/14 02:28:03;;;;;;;35.35;16.77;;;;;;;6.30;81.41;100834.50;3134664;28;20052;-73
2022/11/14 02:29:36;;;;;;;34.83;17.30;;;;;;;6.15;81.12;100806.19;3122580;28;20071;-73
2022/11/14 02:31:08;;;;;;;33.22;18.10;;;;;;;6.26;81.18;100830.22;3133299;28;20115;-73
2022/11/14 02:32:39;;;;;;;33.53;17.05;;;;;;;6.26;81.27;100826.78;3135492;28;20313;-74
2022/11/14 02:34:11;;;;;;;34.22;17.20;;;;;;;6.27;81.39;100831.06;3133674;28;20081;-74
2022/11/14 02:35:43;;;;;;;32.03;16.77;;;;;;;6.22;81.33;100820.81;3115254;28;20650;-74
2022/11/14 02:37:16;;;;;;;36.83;17.52;;;;;;;6.26;81.34;100822.47;3126565;28;20117;-74
2022/11/14 02:38:47;;;;;;;35.55;16.65;;;;;;;6.25;81.26;100822.50;3137034;28;20083;-74
2022/11/14 02:40:19;;;;;;;33.47;17.30;;;;;;;6.23;81.42;100824.22;3136783;28;20052;-74
2022/11/14 02:41:52;;;;;;;30.98;17.20;;;;;;;6.20;81.39;100821.69;3137094;28;20110;-74
2022/11/14 02:43:24;;;;;;;33.47;17.30;;;;;;;6.19;81.30;100819.97;3135758;28;20279;-74
2022/11/14 02:44:54;;;;;;;37.13;17.85;;;;;;;6.18;81.32;100824.28;3128964;28;20108;-74
2022/11/14 02:46:26;;;;;;;36.90;17.42;;;;;;;6.19;81.24;100822.56;3139747;28;20217;-74
2022/11/14 02:47:57;;;;;;;33.55;17.30;;;;;;;6.17;81.36;100821.72;3133375;28;20488;-74
2022/11/14 02:49:29;;;;;;;33.63;18.23;;;;;;;6.17;81.35;100822.56;3132288;28;20049;-74
2022/11/14 02:51:01;;;;;;;33.30;17.50;;;;;;;6.17;81.30;100824.31;3131250;28;20154;-74
2022/11/14 02:52:34;;;;;;;36.40;17.65;;;;;;;6.14;81.34;100820.88;3128578;28;20083;-74
2022/11/14 02:54:05;;;;;;;33.95;17.65;;;;;;;6.12;81.31;100827.81;3132524;28;20335;-74
2022/11/14 02:55:37;;;;;;;37.92;18.17;;;;;;;6.11;81.44;100826.06;3141242;28;20629;-75
2022/11/14 02:57:09;;;;;;;36.45;17.90;;;;;;;6.10;81.26;100820.94;3140694;28;20049;-74
2022/11/14 02:58:41;;;;;;;32.92;17.95;;;;;;;6.08;81.40;100823.53;3140774;28;20052;-73
2022/11/14 03:00:13;;;;;;;35.75;16.40;;;;;;;6.07;81.36;100827.00;3140975;28;20141;-74
2022/11/14 03:01:45;;;;;;;34.42;16.75;;;;;;;6.05;81.50;100822.69;3131525;28;20068;-74
2022/11/14 03:03:16;;;;;;;29.10;16.30;;;;;;;6.04;81.29;100827.03;3126593;28;20053;-73
2022/11/14 03:04:47;;;;;;;29.95;16.80;;;;;;;6.06;81.43;100827.00;3132228;28;20063;-74
2022/11/14 03:06:19;;;;;;;35.97;16.90;;;;;;;6.05;81.24;100826.13;3134954;28;20054;-74
2022/11/14 03:07:55;;;;;;;34.47;16.38;;;;;;;6.06;81.06;100824.41;3140871;28;20166;-73
2022/11/14 03:09:26;;;;;;;30.67;16.20;;;;;;;6.05;81.09;100833.91;3140775;28;20313;-75
2022/11/14 03:11:04;;;;;;;33.20;16.50;;;;;;;6.06;80.74;100843.38;3132254;28;20147;-75
2022/11/14 03:12:35;;;;;;;33.20;16.10;;;;;;;6.04;80.47;100829.59;3140652;28;20489;-74
2022/11/14 03:14:06;;;;;;;34.95;16.70;;;;;;;6.03;80.32;100827.03;3134303;28;20049;-75
2022/11/14 03:15:38;;;;;;;33.88;16.75;;;;;;;6.01;80.22;100833.97;3141025;28;20133;-74
2022/11/14 03:17:10;;;;;;;30.05;16.65;;;;;;;6.02;80.09;100833.94;3140655;28;20442;-75
2022/11/14 03:18:42;;;;;;;34.97;16.52;;;;;;;6.03;80.25;100833.03;3135390;28;20045;-75
2022/11/14 03:20:14;;;;;;;38.67;17.17;;;;;;;6.04;80.33;100832.19;3132132;28;20122;-75
2022/11/14 03:21:46;;;;;;;36.72;17.48;;;;;;;6.06;80.17;100838.22;3129442;28;20441;-75
2022/11/14 03:23:19;;;;;;;32.97;16.25;;;;;;;6.05;80.37;100830.47;3134808;28;20072;-74
2022/11/14 03:24:51;;;;;;;34.17;16.63;;;;;;;6.04;80.26;100829.59;3140633;28;20098;-74
2022/11/14 03:26:24;;;;;;;30.77;16.00;;;;;;;5.68;79.91;100776.50;3140615;28;20053;-74
2022/11/14 03:27:56;;;;;;;31.92;16.88;;;;;;;6.05;80.14;100836.47;3138197;28;20079;-75
2022/11/14 03:29:27;;;;;;;32.05;17.63;;;;;;;6.02;80.01;100828.75;3129455;28;20056;-75
2022/11/14 03:30:59;;;;;;;31.63;15.82;;;;;;;6.01;80.10;100836.53;3138051;28;20052;-75
2022/11/14 03:32:31;;;;;;;34.42;17.08;;;;;;;5.99;79.91;100833.97;3142632;28;20056;-75
2022/11/14 03:34:03;;;;;;;34.45;16.65;;;;;;;5.99;79.86;100830.53;3145535;28;20117;-75
2022/11/14 03:35:35;;;;;;;33.80;16.48;;;;;;;5.97;79.81;100827.94;3140959;28;20052;-75
2022/11/14 03:37:07;;;;;;;31.83;17.10;;;;;;;5.96;79.71;100831.41;3137339;28;20393;-75
2022/11/14 03:38:40;;;;;;;31.92;16.75;;;;;;;5.99;79.73;100833.09;3145629;28;20056;-75
2022/11/14 03:40:12;;;;;;;31.25;16.77;;;;;;;5.98;79.68;100837.44;3145548;28;20586;-75
2022/11/14 03:41:44;;;;;;;31.70;16.92;;;;;;;5.99;79.64;100838.28;3145923;28;20049;-75
2022/11/14 03:43:16;;;;;;;34.00;16.73;;;;;;;5.98;79.82;100831.41;3141963;28;20075;-75
2022/11/14 03:44:48;;;;;;;33.33;17.65;;;;;;;5.99;79.82;100838.28;3144682;28;20053;-76
2022/11/14 03:46:19;;;;;;;33.63;16.98;;;;;;;5.98;79.71;100834.00;3144892;28;20052;-76
2022/11/14 03:47:51;;;;;;;35.00;17.83;;;;;;;5.98;79.81;100834.84;3138140;28;20235;-75
2022/11/14 03:49:23;;;;;;;30.17;15.90;;;;;;;5.99;79.70;100825.34;3136986;28;20075;-75
2022/11/14 03:50:54;;;;;;;32.58;16.92;;;;;;;5.95;79.90;100818.50;3135649;28;20443;-76
2022/11/14 03:52:26;;;;;;;29.63;16.40;;;;;;;5.99;79.71;100830.53;3137445;28;20041;-77
2022/11/14 03:53:58;;;;;;;33.55;16.83;;;;;;;5.98;79.72;100829.69;3140316;28;20485;-77
2022/11/14 03:55:30;;;;;;;32.53;17.13;;;;;;;5.92;79.76;100821.94;3134812;28;20045;-74
2022/11/14 03:57:02;;;;;;;31.17;16.35;;;;;;;5.96;79.77;100830.56;3145352;28;20056;-74
2022/11/14 03:58:32;;;;;;;31.88;16.52;;;;;;;5.96;79.83;100836.56;3145313;28;20044;-74
2022/11/14 04:00:05;;;;;;;35.47;17.08;;;;;;;5.96;79.64;100831.41;3145595;28;20659;-74
2022/11/14 04:01:37;;;;;;;31.02;16.20;;;;;;;5.94;79.66;100833.13;3141274;28;20061;-75
2022/11/14 04:03:08;;;;;;;32.10;16.83;;;;;;;5.95;79.66;100834.88;3137592;28;20048;-75
2022/11/14 04:04:40;;;;;;;34.15;16.80;;;;;;;5.93;79.75;100834.03;3136572;28;20040;-75
2022/11/14 04:06:11;;;;;;;34.05;17.45;;;;;;;5.95;79.77;100837.47;3136187;28;20110;-74
2022/11/14 04:07:43;;;;;;;33.30;16.50;;;;;;;5.95;79.50;100834.88;3136902;28;20484;-75
2022/11/14 04:09:17;;;;;;;32.88;16.33;;;;;;;5.94;79.66;100838.31;3145070;28;20470;-75
2022/11/14 04:10:48;;;;;;;32.08;16.23;;;;;;;5.93;79.76;100837.47;3145108;28;20452;-75
2022/11/14 04:12:20;;;;;;;29.85;16.08;;;;;;;5.95;79.81;100834.03;3138755;28;20137;-75
2022/11/14 04:13:52;;;;;;;35.97;17.80;;;;;;;5.95;79.84;100834.03;3139742;28;20049;-75
2022/11/14 04:15:24;;;;;;;34.47;17.23;;;;;;;5.97;79.84;100837.44;3144200;28;20495;-74
2022/11/14 04:16:55;;;;;;;33.70;17.02;;;;;;;5.97;79.99;100837.44;3145324;28;20081;-74
2022/11/14 04:18:27;;;;;;;36.88;16.80;;;;;;;5.96;80.00;100828.81;3145347;28;20429;-75
2022/11/14 04:19:58;;;;;;;34.05;17.58;;;;;;;5.96;80.07;100828.81;3141378;28;20421;-75
2022/11/14 04:21:30;;;;;;;34.17;17.13;;;;;;;5.97;80.12;100830.53;3133552;28;20052;-74
2022/11/14 04:23:01;;;;;;;34.28;16.85;;;;;;;5.96;80.02;100830.56;3137158;28;20151;-75
2022/11/14 04:24:34;;;;;;;33.65;17.05;;;;;;;5.98;80.05;100831.41;3135379;28;20750;-74
2022/11/14 04:26:06;;;;;;;35.72;18.02;;;;;;;5.95;79.95;100834.88;3145063;28;20056;-74
2022/11/14 04:27:38;;;;;;;38.40;17.95;;;;;;;5.94;79.99;100825.38;3144872;28;20470;-75
2022/11/14 04:29:10;;;;;;;33.08;17.05;;;;;;;5.96;79.89;100833.13;3136489;28;20504;-76
2022/11/14 04:30:43;;;;;;;36.83;18.20;;;;;;;5.96;80.03;100835.72;3139746;28;20125;-75
2022/11/14 04:32:15;;;;;;;34.17;18.02;;;;;;;5.87;79.99;100815.94;3145058;28;20048;-75
2022/11/14 04:33:47;;;;;;;38.70;18.95;;;;;;;5.94;79.88;100835.72;3138881;28;20055;-75
2022/11/14 04:35:18;;;;;;;31.83;17.17;;;;;;;5.92;80.02;100829.69;3142514;28;20563;-75
2022/11/14 04:36:50;;;;;;;36.78;17.35;;;;;;;5.91;79.74;100826.22;3133942;28;20139;-74
2022/11/14 04:38:22;;;;;;;37.80;17.42;;;;;;;5.90;79.75;100831.44;3142880;28;20488;-75
2022/11/14 04:39:59;;;;;;;35.83;18.80;;;;;;;5.88;79.90;100828.00;3145082;28;20048;-76
2022/11/14 04:41:31;;;;;;;37.75;18.50;;;;;;;5.87;79.99;100828.88;3145301;28;20053;-76
2022/11/14 04:43:02;;;;;;;38.17;18.63;;;;;;;5.87;80.05;100828.88;3142757;28;20131;-76
2022/11/14 04:44:34;;;;;;;36.28;18.48;;;;;;;5.85;79.96;100826.28;3142136;28;20075;-75
2022/11/14 04:46:06;;;;;;;37.45;18.45;;;;;;;5.87;80.14;100834.06;3144787;28;20466;-75
2022/11/14 04:47:38;;;;;;;36.20;18.52;;;;;;;5.87;80.03;100831.47;3134351;28;20056;-75
2022/11/14 04:49:10;;;;;;;40.22;19.52;;;;;;;5.86;80.27;100830.63;3129339;28;20036;-75
2022/11/14 04:50:42;;;;;;;37.17;18.23;;;;;;;5.88;80.26;100833.16;3133317;28;20778;-75
2022/11/14 04:52:14;;;;;;;42.38;19.33;;;;;;;5.87;80.43;100829.72;3125600;28;20379;-76
2022/11/14 04:53:46;;;;;;;38.67;19.17;;;;;;;5.88;80.29;100825.41;3140605;28;20144;-74
2022/11/14 04:55:19;;;;;;;43.20;20.65;;;;;;;5.88;80.42;100830.59;3144736;28;20434;-74
2022/11/14 04:56:51;;;;;;;39.75;19.77;;;;;;;5.87;80.32;100840.06;3128293;28;20520;-74
2022/11/14 04:58:22;;;;;;;41.85;19.73;;;;;;;5.84;80.37;100829.75;3143486;28;20110;-75
2022/11/14 04:59:54;;;;;;;39.90;19.27;;;;;;;5.87;80.31;100837.50;3143813;28;20571;-74
2022/11/14 05:01:26;;;;;;;40.97;20.50;;;;;;;5.87;80.38;100839.22;3142085;28;20091;-74
2022/11/14 05:02:59;;;;;;;46.47;21.90;;;;;;;5.80;80.33;100825.50;3132187;28;20123;-74
2022/11/14 05:04:31;;;;;;;38.17;20.48;;;;;;;5.87;80.26;100836.63;3136019;28;20656;-73
2022/11/14 05:06:03;;;;;;;36.92;20.27;;;;;;;5.88;80.35;100851.25;3133904;28;20126;-74
2022/11/14 05:07:35;;;;;;;40.45;20.67;;;;;;;5.86;80.41;100847.84;3144644;28;20040;-74
2022/11/14 05:09:07;;;;;;;42.78;21.30;;;;;;;5.86;80.42;100840.94;3144410;28;20056;-74
2022/11/14 05:10:43;;;;;;;43.25;22.08;;;;;;;5.86;80.30;100848.72;3144950;28;20052;-74
2022/11/14 05:12:14;;;;;;;40.30;20.85;;;;;;;5.85;80.30;100854.72;3144993;28;20056;-74
2022/11/14 05:13:47;;;;;;;39.83;21.05;;;;;;;5.83;80.30;100856.50;3139034;28;20049;-75
2022/11/14 05:15:19;;;;;;;45.67;22.10;;;;;;;5.84;80.31;100853.03;3142943;28;20106;-75
2022/11/14 05:16:51;;;;;;;40.70;21.08;;;;;;;5.85;80.34;100848.72;3144838;28;20074;-74
2022/11/14 05:18:23;;;;;;;40.25;20.13;;;;;;;5.85;80.40;100851.28;3144746;28;20056;-74
2022/11/14 05:19:54;;;;;;;45.58;21.65;;;;;;;5.86;80.42;100855.63;3141513;28;20098;-75
2022/11/14 05:21:27;;;;;;;45.42;24.05;;;;;;;5.88;80.36;100856.44;3133121;28;20060;-75
2022/11/14 05:22:59;;;;;;;45.60;20.60;;;;;;;5.87;80.25;100858.16;3135348;28;20041;-76
2022/11/14 05:24:31;;;;;;;44.40;20.65;;;;;;;5.88;80.25;100859.03;3144665;28;20045;-76
2022/11/14 05:26:06;;;;;;;48.33;21.35;;;;;;;5.88;80.15;100852.13;3136251;28;20053;-75
2022/11/14 05:27:38;;;;;;;45.85;22.08;;;;;;;5.88;80.27;100865.03;3131323;28;20049;-74
2022/11/14 05:29:10;;;;;;;48.10;21.58;;;;;;;5.88;80.21;100862.44;3132082;28;20059;-74
2022/11/14 05:30:41;;;;;;;45.08;21.95;;;;;;;5.90;80.29;100860.72;3139353;28;20414;-75
2022/11/14 05:32:12;;;;;;;47.60;20.85;;;;;;;5.93;80.12;100863.31;3133078;28;20041;-71
2022/11/14 05:33:45;;;;;;;42.63;21.58;;;;;;;5.98;80.18;100865.03;3141170;28;20063;-73
2022/11/14 05:35:17;;;;;;;52.93;21.53;;;;;;;6.02;80.26;100864.97;3141878;28;20722;-73
2022/11/14 05:36:49;;;;;;;43.42;20.30;;;;;;;6.08;80.47;100864.91;3137875;28;20048;-74
2022/11/14 05:38:21;;;;;;;48.10;22.35;;;;;;;6.13;80.34;100860.53;3144325;28;20056;-76
2022/11/14 05:39:52;;;;;;;51.03;21.67;;;;;;;6.21;80.37;100867.34;3144414;28;20140;-74
2022/11/14 05:41:26;;;;;;;45.08;20.98;;;;;;;6.28;80.25;100863.84;3134158;28;20053;-74
2022/11/14 05:42:57;;;;;;;44.30;21.50;;;;;;;6.35;80.37;100873.25;3134647;28;20056;-75
2022/11/14 05:44:29;;;;;;;46.67;22.83;;;;;;;6.42;80.16;100872.34;3133517;28;20102;-74
2022/11/14 05:46:02;;;;;;;181.07;84.78;;;;;;;6.49;80.16;100871.38;3131244;28;20445;-74
2022/11/14 05:47:34;;;;;;;184.98;85.50;;;;;;;6.54;80.08;100872.19;3131404;28;20433;-74
2022/11/14 05:49:06;;;;;;;99.38;51.00;;;;;;;6.59;80.07;100867.78;3131383;28;20041;-76
2022/11/14 05:50:38;;;;;;;46.90;23.33;;;;;;;6.72;80.30;100871.13;3135852;28;20053;-74
2022/11/14 05:52:10;;;;;;;38.13;20.55;;;;;;;6.58;80.05;100837.63;3138483;28;20525;-73
2022/11/14 05:53:42;;;;;;;45.90;21.65;;;;;;;6.89;80.04;100881.28;3136992;28;20045;-74
2022/11/14 05:55:14;;;;;;;44.28;21.98;;;;;;;6.99;79.86;100871.63;3130793;28;20106;-74
2022/11/14 05:56:48;;;;;;;41.70;20.48;;;;;;;7.12;79.76;100888.72;3131396;28;20528;-73
2022/11/14 05:58:20;;;;;;;47.13;21.88;;;;;;;7.14;79.53;100874.00;3134638;28;20500;-75
2022/11/14 05:59:51;;;;;;;43.97;21.58;;;;;;;7.16;79.42;100861.91;3138231;28;20685;-74
2022/11/14 06:01:23;;;;;;;38.65;21.27;;;;;;;7.44;79.52;100885.66;3138494;28;20162;-74
2022/11/14 06:02:55;;;;;;;42.90;20.63;;;;;;;7.53;79.26;100874.31;3134742;28;20055;-75
2022/11/14 06:04:27;;;;;;;46.67;22.42;;;;;;;7.67;79.07;100887.06;3135107;28;20052;-76
2022/11/14 06:06:01;;;;;;;42.05;23.45;;;;;;;7.80;78.68;100883.38;3133034;28;20476;-76
2022/11/14 06:07:32;;;;;;;42.17;21.40;;;;;;;7.94;78.39;100884.00;3136271;28;20088;-76
2022/11/14 06:09:04;;;;;;;40.97;21.45;;;;;;;8.11;77.93;100885.47;3143067;28;20583;-72
2022/11/14 06:10:36;;;;;;;44.72;21.45;;;;;;;8.20;77.69;100872.31;3145061;28;20045;-75
2022/11/14 06:12:09;;;;;;;38.50;20.85;;;;;;;8.36;77.57;100881.53;3146541;28;20061;-71
2022/11/14 06:13:42;;;;;;;38.42;18.95;;;;;;;8.48;77.09;100877.88;3142421;28;20051;-74
2022/11/14 06:15:14;;;;;;;32.90;18.47;;;;;;;8.56;76.65;100877.72;3147014;28;20052;-73
2022/11/14 06:16:46;;;;;;;32.65;17.90;;;;;;;8.64;76.17;100878.44;3136734;28;20314;-74
2022/11/14 06:18:18;;;;;;;35.25;17.45;;;;;;;8.78;76.16;100875.56;3137577;28;20083;-74
2022/11/14 06:19:49;;;;;;;35.45;18.13;;;;;;;8.86;75.41;100853.72;3142014;28;20488;-79
2022/11/14 06:21:23;;;;;;;33.20;18.42;;;;;;;9.22;74.97;100889.34;3140462;28;20048;-69
2022/11/14 06:22:55;;;;;;;34.10;18.13;;;;;;;9.48;74.32;100876.59;3133451;28;20053;-73
2022/11/14 06:24:27;;;;;;;42.00;19.60;;;;;;;9.78;73.46;100877.59;3136034;28;20117;-68
2022/11/14 06:26:00;;;;;;;40.42;19.23;;;;;;;9.99;72.24;100858.00;3136624;28;20049;-68
2022/11/14 06:27:33;;;;;;;46.08;25.42;;;;;;;10.33;71.16;100877.97;3146356;28;20196;-74
2022/11/14 06:29:06;;;;;;;49.85;26.05;;;;;;;10.46;70.16;100883.69;3138482;28;20466;-69
2022/11/14 06:30:40;;;;;;;66.82;32.80;;;;;;;10.64;69.86;100875.38;3141486;28;20512;-76
2022/11/14 06:32:12;;;;;;;45.00;24.85;;;;;;;10.84;69.48;100876.56;3147069;28;20044;-75
2022/11/14 06:33:44;;;;;;;47.78;21.67;;;;;;;10.96;68.68;100870.13;3145447;28;20066;-74
2022/11/14 06:35:15;;;;;;;46.17;21.42;;;;;;;11.35;68.24;100871.50;3133074;28;20052;-76
2022/11/14 06:36:47;;;;;;;93.45;50.53;;;;;;;11.66;67.35;100877.53;3133882;28;20445;-74
2022/11/14 06:38:19;;;;;;;69.82;33.45;;;;;;;11.86;66.74;100872.56;3134291;28;20053;-75
2022/11/14 06:39:53;;;;;;;44.92;22.00;;;;;;;12.16;65.96;100882.88;3133774;28;20041;-76
2022/11/14 06:41:25;;;;;;;42.58;22.23;;;;;;;12.42;65.50;100871.47;3134633;28;20052;-73
2022/11/14 06:42:58;;;;;;;77.53;42.47;;;;;;;12.71;64.74;100878.25;3133669;28;20049;-76
2022/11/14 06:44:30;;;;;;;60.97;29.88;;;;;;;12.99;63.81;100878.09;3133874;28;20061;-77
2022/11/14 06:46:03;;;;;;;34.50;16.42;;;;;;;13.26;63.31;100870.97;3133487;28;20053;-76
2022/11/14 06:47:35;;;;;;;31.25;16.38;;;;;;;13.58;62.67;100874.09;3138794;28;20056;-71
2022/11/14 06:49:07;;;;;;;32.85;15.85;;;;;;;13.99;62.13;100876.75;3139220;28;20122;-75
2022/11/14 06:50:39;;;;;;;25.85;15.13;;;;;;;14.40;61.07;100874.13;3133975;28;20201;-74
2022/11/14 06:52:10;;;;;;;25.70;14.00;;;;;;;14.75;59.94;100870.81;3133586;28;20049;-74
2022/11/14 06:53:43;;;;;;;27.23;13.90;;;;;;;15.10;59.07;100873.59;3135124;28;20122;-73
2022/11/14 06:55:15;;;;;;;18.75;11.68;;;;;;;15.38;57.70;100864.38;3138813;28;20053;-72
2022/11/14 06:56:47;;;;;;;24.83;14.13;;;;;;;15.59;56.73;100870.41;3139727;28;20059;-72
2022/11/14 06:58:20;;;;;;;29.13;15.55;;;;;;;15.83;55.90;100868.38;3133240;28;20079;-73
2022/11/14 06:59:52;;;;;;;25.35;14.75;;;;;;;16.10;55.08;100871.38;3136901;28;20200;-73
2022/11/14 07:01:25;;;;;;;27.33;14.30;;;;;;;16.26;53.55;100864.38;3137222;28;20052;-73
2022/11/14 07:02:58;;;;;;;25.15;13.27;;;;;;;16.38;53.39;100861.09;3133856;28;20127;-73
2022/11/14 07:04:30;;;;;;;24.08;13.32;;;;;;;16.55;52.53;100867.28;3136482;28;20052;-73